sensor_id;sensor_type;location;lat;lon;timestamp;P1;durP1;ratioP1;P2;durP2;ratioP2
13959;SDS011;7052;51.050;3.716;2024-02-04T00:01:06;16.47;;;8.87;;
13959;SDS011;7052;51.050;3.716;2024-02-04T00:03:33;19.10;;;8.97;;
13959;SDS011;7052;51.050;3.716;2024-02-04T00:06:01;16.83;;;7.80;;
13959;SDS011;7052;51.050;3.716;2024-02-04T00:08:31;18.10;;;9.57;;
13959;SDS011;7052;51.050;3.716;2024-02-04T00:10:57;18.17;;;8.30;;
13959;SDS011;7052;51.050;3.716;2024-02-04T00:13:25;14.40;;;7.63;;
13959;SDS011;7052;51.050;3.716;2024-02-04T00:15:56;18.23;;;9.03;;
13959;SDS011;7052;51.050;3.716;2024-02-04T00:18:23;15.93;;;9.07;;
13959;SDS011;7052;51.050;3.716;2024-02-04T00:20:51;17.63;;;9.33;;
13959;SDS011;7052;51.050;3.716;2024-02-04T00:23:18;17.43;;;8.87;;
13959;SDS011;7052;51.050;3.716;2024-02-04T00:25:49;20.77;;;9.80;;
13959;SDS011;7052;51.050;3.716;2024-02-04T00:28:24;15.27;;;8.17;;
13959;SDS011;7052;51.050;3.716;2024-02-04T00:30:52;21.37;;;8.97;;
13959;SDS011;7052;51.050;3.716;2024-02-04T00:33:20;17.87;;;9.47;;
13959;SDS011;7052;51.050;3.716;2024-02-04T00:35:47;21.67;;;9.70;;
13959;SDS011;7052;51.050;3.716;2024-02-04T00:38:16;19.77;;;9.57;;
13959;SDS011;7052;51.050;3.716;2024-02-04T00:40:43;20.40;;;9.93;;
13959;SDS011;7052;51.050;3.716;2024-02-04T00:43:12;19.50;;;10.20;;
13959;SDS011;7052;51.050;3.716;2024-02-04T00:45:41;17.70;;;9.40;;
13959;SDS011;7052;51.050;3.716;2024-02-04T00:48:07;19.57;;;10.23;;
13959;SDS011;7052;51.050;3.716;2024-02-04T00:50:35;20.20;;;10.07;;
13959;SDS011;7052;51.050;3.716;2024-02-04T00:53:02;15.97;;;9.40;;
13959;SDS011;7052;51.050;3.716;2024-02-04T00:55:31;19.43;;;10.47;;
13959;SDS011;7052;51.050;3.716;2024-02-04T00:57:58;24.07;;;11.03;;
13959;SDS011;7052;51.050;3.716;2024-02-04T01:00:28;20.23;;;11.10;;
13959;SDS011;7052;51.050;3.716;2024-02-04T01:02:55;24.47;;;11.30;;
13959;SDS011;7052;51.050;3.716;2024-02-04T01:05:22;27.40;;;11.90;;
13959;SDS011;7052;51.050;3.716;2024-02-04T01:07:51;23.10;;;11.23;;
13959;SDS011;7052;51.050;3.716;2024-02-04T01:10:18;24.47;;;11.93;;
13959;SDS011;7052;51.050;3.716;2024-02-04T01:12:45;23.87;;;12.40;;
13959;SDS011;7052;51.050;3.716;2024-02-04T01:15:12;20.43;;;11.93;;
13959;SDS011;7052;51.050;3.716;2024-02-04T01:17:41;25.80;;;12.93;;
13959;SDS011;7052;51.050;3.716;2024-02-04T01:20:09;26.10;;;12.90;;
13959;SDS011;7052;51.050;3.716;2024-02-04T01:22:41;24.87;;;12.50;;
13959;SDS011;7052;51.050;3.716;2024-02-04T01:25:08;25.07;;;13.13;;
13959;SDS011;7052;51.050;3.716;2024-02-04T01:27:35;27.27;;;12.73;;
13959;SDS011;7052;51.050;3.716;2024-02-04T01:30:02;26.47;;;13.03;;
13959;SDS011;7052;51.050;3.716;2024-02-04T01:32:30;26.43;;;13.50;;
13959;SDS011;7052;51.050;3.716;2024-02-04T01:35:05;27.13;;;14.77;;
13959;SDS011;7052;51.050;3.716;2024-02-04T01:37:38;25.27;;;13.03;;
13959;SDS011;7052;51.050;3.716;2024-02-04T01:40:06;27.30;;;14.70;;
13959;SDS011;7052;51.050;3.716;2024-02-04T01:42:37;27.67;;;13.13;;
13959;SDS011;7052;51.050;3.716;2024-02-04T01:45:04;29.00;;;14.10;;
13959;SDS011;7052;51.050;3.716;2024-02-04T01:47:32;27.70;;;13.63;;
13959;SDS011;7052;51.050;3.716;2024-02-04T01:50:00;27.83;;;14.67;;
13959;SDS011;7052;51.050;3.716;2024-02-04T01:52:32;30.87;;;13.80;;
13959;SDS011;7052;51.050;3.716;2024-02-04T01:55:01;23.07;;;13.90;;
13959;SDS011;7052;51.050;3.716;2024-02-04T01:57:32;25.30;;;13.97;;
13959;SDS011;7052;51.050;3.716;2024-02-04T02:00:03;26.00;;;14.10;;
13959;SDS011;7052;51.050;3.716;2024-02-04T02:02:34;26.70;;;13.10;;
13959;SDS011;7052;51.050;3.716;2024-02-04T02:05:12;26.33;;;13.77;;
13959;SDS011;7052;51.050;3.716;2024-02-04T02:07:41;23.00;;;12.53;;
13959;SDS011;7052;51.050;3.716;2024-02-04T02:10:11;23.00;;;12.30;;
13959;SDS011;7052;51.050;3.716;2024-02-04T02:12:39;28.63;;;13.23;;
13959;SDS011;7052;51.050;3.716;2024-02-04T02:15:11;26.50;;;12.43;;
13959;SDS011;7052;51.050;3.716;2024-02-04T02:17:44;23.13;;;11.50;;
13959;SDS011;7052;51.050;3.716;2024-02-04T02:20:19;24.33;;;11.50;;
13959;SDS011;7052;51.050;3.716;2024-02-04T02:22:56;20.67;;;10.30;;
13959;SDS011;7052;51.050;3.716;2024-02-04T02:25:31;24.93;;;11.00;;
13959;SDS011;7052;51.050;3.716;2024-02-04T02:27:59;20.33;;;10.33;;
13959;SDS011;7052;51.050;3.716;2024-02-04T02:30:27;19.17;;;9.70;;
13959;SDS011;7052;51.050;3.716;2024-02-04T02:32:55;22.97;;;10.13;;
13959;SDS011;7052;51.050;3.716;2024-02-04T02:35:25;23.57;;;10.70;;
13959;SDS011;7052;51.050;3.716;2024-02-04T02:37:55;24.60;;;8.90;;
13959;SDS011;7052;51.050;3.716;2024-02-04T02:40:34;26.77;;;10.67;;
13959;SDS011;7052;51.050;3.716;2024-02-04T02:43:09;24.57;;;9.93;;
13959;SDS011;7052;51.050;3.716;2024-02-04T02:45:37;23.17;;;10.07;;
13959;SDS011;7052;51.050;3.716;2024-02-04T02:48:08;22.20;;;9.77;;
13959;SDS011;7052;51.050;3.716;2024-02-04T02:50:36;22.93;;;9.13;;
13959;SDS011;7052;51.050;3.716;2024-02-04T02:53:03;20.60;;;9.13;;
13959;SDS011;7052;51.050;3.716;2024-02-04T02:55:32;25.53;;;9.60;;
13959;SDS011;7052;51.050;3.716;2024-02-04T02:57:59;19.00;;;8.63;;
13959;SDS011;7052;51.050;3.716;2024-02-04T03:00:29;19.77;;;8.20;;
13959;SDS011;7052;51.050;3.716;2024-02-04T03:02:55;17.17;;;7.57;;
13959;SDS011;7052;51.050;3.716;2024-02-04T03:05:23;15.83;;;7.40;;
13959;SDS011;7052;51.050;3.716;2024-02-04T03:07:52;14.00;;;7.53;;
13959;SDS011;7052;51.050;3.716;2024-02-04T03:10:22;14.30;;;7.10;;
13959;SDS011;7052;51.050;3.716;2024-02-04T03:12:55;14.47;;;6.97;;
13959;SDS011;7052;51.050;3.716;2024-02-04T03:15:23;15.33;;;7.30;;
13959;SDS011;7052;51.050;3.716;2024-02-04T03:17:52;13.80;;;7.70;;
13959;SDS011;7052;51.050;3.716;2024-02-04T03:20:19;14.43;;;7.83;;
13959;SDS011;7052;51.050;3.716;2024-02-04T03:22:47;15.67;;;7.60;;
13959;SDS011;7052;51.050;3.716;2024-02-04T03:25:16;15.47;;;7.20;;
13959;SDS011;7052;51.050;3.716;2024-02-04T03:27:43;14.63;;;8.63;;
13959;SDS011;7052;51.050;3.716;2024-02-04T03:30:13;14.07;;;9.17;;
13959;SDS011;7052;51.050;3.716;2024-02-04T03:32:40;13.47;;;9.63;;
13959;SDS011;7052;51.050;3.716;2024-02-04T03:35:07;13.47;;;8.93;;
13959;SDS011;7052;51.050;3.716;2024-02-04T03:37:37;15.27;;;9.60;;
13959;SDS011;7052;51.050;3.716;2024-02-04T03:40:05;17.10;;;9.30;;
13959;SDS011;7052;51.050;3.716;2024-02-04T03:42:33;13.50;;;9.60;;
13959;SDS011;7052;51.050;3.716;2024-02-04T03:45:01;18.60;;;9.20;;
13959;SDS011;7052;51.050;3.716;2024-02-04T03:47:31;20.73;;;9.53;;
13959;SDS011;7052;51.050;3.716;2024-02-04T03:50:00;15.27;;;9.30;;
13959;SDS011;7052;51.050;3.716;2024-02-04T03:52:28;18.97;;;10.67;;
13959;SDS011;7052;51.050;3.716;2024-02-04T03:54:54;17.50;;;8.53;;
13959;SDS011;7052;51.050;3.716;2024-02-04T03:57:22;22.83;;;9.63;;
13959;SDS011;7052;51.050;3.716;2024-02-04T03:59:52;21.93;;;8.67;;
13959;SDS011;7052;51.050;3.716;2024-02-04T04:02:22;17.70;;;9.20;;
13959;SDS011;7052;51.050;3.716;2024-02-04T04:04:51;15.70;;;8.90;;
13959;SDS011;7052;51.050;3.716;2024-02-04T04:07:19;18.13;;;8.97;;
13959;SDS011;7052;51.050;3.716;2024-02-04T04:09:46;14.30;;;8.87;;
13959;SDS011;7052;51.050;3.716;2024-02-04T04:12:13;18.27;;;9.10;;
13959;SDS011;7052;51.050;3.716;2024-02-04T04:14:40;16.63;;;8.53;;
13959;SDS011;7052;51.050;3.716;2024-02-04T04:17:09;15.67;;;8.40;;
13959;SDS011;7052;51.050;3.716;2024-02-04T04:19:36;17.87;;;7.83;;
13959;SDS011;7052;51.050;3.716;2024-02-04T04:22:05;14.00;;;8.20;;
13959;SDS011;7052;51.050;3.716;2024-02-04T04:24:32;14.30;;;8.70;;
13959;SDS011;7052;51.050;3.716;2024-02-04T04:26:59;15.03;;;7.77;;
13959;SDS011;7052;51.050;3.716;2024-02-04T04:29:27;13.13;;;8.20;;
13959;SDS011;7052;51.050;3.716;2024-02-04T04:31:54;18.57;;;9.27;;
13959;SDS011;7052;51.050;3.716;2024-02-04T04:34:21;16.67;;;9.10;;
13959;SDS011;7052;51.050;3.716;2024-02-04T04:36:50;18.23;;;8.70;;
13959;SDS011;7052;51.050;3.716;2024-02-04T04:39:19;13.37;;;7.77;;
13959;SDS011;7052;51.050;3.716;2024-02-04T04:41:45;16.23;;;8.53;;
13959;SDS011;7052;51.050;3.716;2024-02-04T04:44:12;11.57;;;7.90;;
13959;SDS011;7052;51.050;3.716;2024-02-04T04:46:41;16.77;;;8.17;;
13959;SDS011;7052;51.050;3.716;2024-02-04T04:49:09;20.73;;;8.67;;
13959;SDS011;7052;51.050;3.716;2024-02-04T04:51:36;14.90;;;8.20;;
13959;SDS011;7052;51.050;3.716;2024-02-04T04:54:03;17.63;;;7.13;;
13959;SDS011;7052;51.050;3.716;2024-02-04T04:56:36;18.53;;;8.00;;
13959;SDS011;7052;51.050;3.716;2024-02-04T04:59:04;15.40;;;7.33;;
13959;SDS011;7052;51.050;3.716;2024-02-04T05:01:32;14.40;;;7.40;;
13959;SDS011;7052;51.050;3.716;2024-02-04T05:03:59;16.07;;;7.10;;
13959;SDS011;7052;51.050;3.716;2024-02-04T05:06:27;18.27;;;8.10;;
13959;SDS011;7052;51.050;3.716;2024-02-04T05:08:56;19.27;;;8.03;;
13959;SDS011;7052;51.050;3.716;2024-02-04T05:11:24;16.37;;;7.60;;
13959;SDS011;7052;51.050;3.716;2024-02-04T05:13:56;21.70;;;7.67;;
13959;SDS011;7052;51.050;3.716;2024-02-04T05:16:26;15.57;;;6.77;;
13959;SDS011;7052;51.050;3.716;2024-02-04T05:18:53;13.73;;;6.70;;
13959;SDS011;7052;51.050;3.716;2024-02-04T05:21:23;13.60;;;6.47;;
13959;SDS011;7052;51.050;3.716;2024-02-04T05:23:50;13.87;;;5.83;;
13959;SDS011;7052;51.050;3.716;2024-02-04T05:26:17;15.77;;;6.47;;
13959;SDS011;7052;51.050;3.716;2024-02-04T05:28:44;13.83;;;6.70;;
13959;SDS011;7052;51.050;3.716;2024-02-04T05:31:13;14.10;;;7.27;;
13959;SDS011;7052;51.050;3.716;2024-02-04T05:33:42;15.30;;;6.73;;
13959;SDS011;7052;51.050;3.716;2024-02-04T05:36:09;20.00;;;6.70;;
13959;SDS011;7052;51.050;3.716;2024-02-04T05:38:36;15.97;;;7.60;;
13959;SDS011;7052;51.050;3.716;2024-02-04T05:41:04;16.63;;;6.87;;
13959;SDS011;7052;51.050;3.716;2024-02-04T05:43:31;12.53;;;6.87;;
13959;SDS011;7052;51.050;3.716;2024-02-04T05:45:58;18.47;;;7.57;;
13959;SDS011;7052;51.050;3.716;2024-02-04T05:48:30;19.50;;;7.47;;
13959;SDS011;7052;51.050;3.716;2024-02-04T05:50:57;12.73;;;6.53;;
13959;SDS011;7052;51.050;3.716;2024-02-04T05:53:26;12.50;;;6.77;;
13959;SDS011;7052;51.050;3.716;2024-02-04T05:55:53;10.30;;;6.00;;
13959;SDS011;7052;51.050;3.716;2024-02-04T05:58:22;10.03;;;6.30;;
13959;SDS011;7052;51.050;3.716;2024-02-04T06:00:49;7.37;;;5.17;;
13959;SDS011;7052;51.050;3.716;2024-02-04T06:03:16;14.73;;;6.77;;
13959;SDS011;7052;51.050;3.716;2024-02-04T06:05:46;11.20;;;5.93;;
13959;SDS011;7052;51.050;3.716;2024-02-04T06:08:13;10.60;;;5.97;;
13959;SDS011;7052;51.050;3.716;2024-02-04T06:10:40;15.17;;;6.77;;
13959;SDS011;7052;51.050;3.716;2024-02-04T06:13:09;17.27;;;6.57;;
13959;SDS011;7052;51.050;3.716;2024-02-04T06:15:43;15.47;;;6.80;;
13959;SDS011;7052;51.050;3.716;2024-02-04T06:18:10;12.77;;;6.50;;
13959;SDS011;7052;51.050;3.716;2024-02-04T06:20:37;10.37;;;5.83;;
13959;SDS011;7052;51.050;3.716;2024-02-04T06:23:06;13.03;;;6.60;;
13959;SDS011;7052;51.050;3.716;2024-02-04T06:25:33;11.03;;;6.70;;
13959;SDS011;7052;51.050;3.716;2024-02-04T06:28:00;10.60;;;6.80;;
13959;SDS011;7052;51.050;3.716;2024-02-04T06:30:27;11.37;;;6.90;;
13959;SDS011;7052;51.050;3.716;2024-02-04T06:32:54;12.27;;;6.80;;
13959;SDS011;7052;51.050;3.716;2024-02-04T06:35:22;10.93;;;6.40;;
13959;SDS011;7052;51.050;3.716;2024-02-04T06:37:50;12.57;;;6.27;;
13959;SDS011;7052;51.050;3.716;2024-02-04T06:40:19;15.20;;;6.83;;
13959;SDS011;7052;51.050;3.716;2024-02-04T06:42:45;10.83;;;6.40;;
13959;SDS011;7052;51.050;3.716;2024-02-04T06:45:13;11.47;;;6.60;;
13959;SDS011;7052;51.050;3.716;2024-02-04T06:47:43;13.03;;;6.57;;
13959;SDS011;7052;51.050;3.716;2024-02-04T06:50:10;11.17;;;5.50;;
13959;SDS011;7052;51.050;3.716;2024-02-04T06:52:39;8.30;;;5.03;;
13959;SDS011;7052;51.050;3.716;2024-02-04T06:55:07;9.00;;;5.23;;
13959;SDS011;7052;51.050;3.716;2024-02-04T06:57:37;10.10;;;5.07;;
13959;SDS011;7052;51.050;3.716;2024-02-04T07:00:05;7.47;;;4.60;;
13959;SDS011;7052;51.050;3.716;2024-02-04T07:02:34;10.03;;;4.70;;
13959;SDS011;7052;51.050;3.716;2024-02-04T07:05:01;7.43;;;4.47;;
13959;SDS011;7052;51.050;3.716;2024-02-04T07:07:29;8.37;;;4.33;;
13959;SDS011;7052;51.050;3.716;2024-02-04T07:09:56;6.07;;;4.00;;
13959;SDS011;7052;51.050;3.716;2024-02-04T07:12:23;10.63;;;4.20;;
13959;SDS011;7052;51.050;3.716;2024-02-04T07:14:52;8.50;;;4.30;;
13959;SDS011;7052;51.050;3.716;2024-02-04T07:17:19;7.37;;;3.90;;
13959;SDS011;7052;51.050;3.716;2024-02-04T07:19:46;5.73;;;3.40;;
13959;SDS011;7052;51.050;3.716;2024-02-04T07:22:13;10.80;;;4.20;;
13959;SDS011;7052;51.050;3.716;2024-02-04T07:24:42;5.90;;;3.60;;
13959;SDS011;7052;51.050;3.716;2024-02-04T07:27:09;7.63;;;3.80;;
13959;SDS011;7052;51.050;3.716;2024-02-04T07:29:37;7.33;;;3.70;;
13959;SDS011;7052;51.050;3.716;2024-02-04T07:32:07;6.70;;;3.73;;
13959;SDS011;7052;51.050;3.716;2024-02-04T07:34:35;7.87;;;3.87;;
13959;SDS011;7052;51.050;3.716;2024-02-04T07:37:02;7.87;;;3.73;;
13959;SDS011;7052;51.050;3.716;2024-02-04T07:39:30;6.40;;;3.73;;
13959;SDS011;7052;51.050;3.716;2024-02-04T07:41:57;6.60;;;3.70;;
13959;SDS011;7052;51.050;3.716;2024-02-04T07:44:26;8.83;;;3.87;;
13959;SDS011;7052;51.050;3.716;2024-02-04T07:46:53;7.57;;;3.40;;
13959;SDS011;7052;51.050;3.716;2024-02-04T07:49:21;5.67;;;2.97;;
13959;SDS011;7052;51.050;3.716;2024-02-04T07:51:49;8.73;;;3.33;;
13959;SDS011;7052;51.050;3.716;2024-02-04T07:54:16;5.77;;;3.30;;
13959;SDS011;7052;51.050;3.716;2024-02-04T07:56:48;6.77;;;3.20;;
13959;SDS011;7052;51.050;3.716;2024-02-04T07:59:15;7.27;;;3.43;;
13959;SDS011;7052;51.050;3.716;2024-02-04T08:01:44;6.47;;;3.27;;
13959;SDS011;7052;51.050;3.716;2024-02-04T08:04:11;6.10;;;3.00;;
13959;SDS011;7052;51.050;3.716;2024-02-04T08:06:41;5.03;;;2.40;;
13959;SDS011;7052;51.050;3.716;2024-02-04T08:09:08;6.20;;;3.10;;
13959;SDS011;7052;51.050;3.716;2024-02-04T08:11:37;4.70;;;2.70;;
13959;SDS011;7052;51.050;3.716;2024-02-04T08:14:04;8.50;;;3.00;;
13959;SDS011;7052;51.050;3.716;2024-02-04T08:16:31;8.47;;;3.10;;
13959;SDS011;7052;51.050;3.716;2024-02-04T08:18:59;7.57;;;2.83;;
13959;SDS011;7052;51.050;3.716;2024-02-04T08:21:26;5.07;;;2.90;;
13959;SDS011;7052;51.050;3.716;2024-02-04T08:23:58;4.07;;;2.57;;
13959;SDS011;7052;51.050;3.716;2024-02-04T08:26:25;6.73;;;2.93;;
13959;SDS011;7052;51.050;3.716;2024-02-04T08:28:52;4.80;;;3.57;;
13959;SDS011;7052;51.050;3.716;2024-02-04T08:31:19;6.47;;;3.10;;
13959;SDS011;7052;51.050;3.716;2024-02-04T08:33:46;7.00;;;3.10;;
13959;SDS011;7052;51.050;3.716;2024-02-04T08:36:13;7.63;;;3.87;;
13959;SDS011;7052;51.050;3.716;2024-02-04T08:38:40;8.10;;;3.63;;
13959;SDS011;7052;51.050;3.716;2024-02-04T08:41:09;7.53;;;3.63;;
13959;SDS011;7052;51.050;3.716;2024-02-04T08:43:38;7.13;;;3.87;;
13959;SDS011;7052;51.050;3.716;2024-02-04T08:46:05;7.10;;;3.80;;
13959;SDS011;7052;51.050;3.716;2024-02-04T08:48:33;9.93;;;4.27;;
13959;SDS011;7052;51.050;3.716;2024-02-04T08:51:00;6.53;;;3.97;;
13959;SDS011;7052;51.050;3.716;2024-02-04T08:53:29;9.23;;;4.23;;
13959;SDS011;7052;51.050;3.716;2024-02-04T08:55:56;8.07;;;4.47;;
13959;SDS011;7052;51.050;3.716;2024-02-04T08:58:24;12.03;;;4.47;;
13959;SDS011;7052;51.050;3.716;2024-02-04T09:00:51;6.67;;;3.87;;
13959;SDS011;7052;51.050;3.716;2024-02-04T09:03:19;7.97;;;3.90;;
13959;SDS011;7052;51.050;3.716;2024-02-04T09:05:48;7.27;;;3.53;;
13959;SDS011;7052;51.050;3.716;2024-02-04T09:08:15;7.60;;;3.07;;
13959;SDS011;7052;51.050;3.716;2024-02-04T09:10:46;9.77;;;3.40;;
13959;SDS011;7052;51.050;3.716;2024-02-04T09:13:15;5.77;;;3.23;;
13959;SDS011;7052;51.050;3.716;2024-02-04T09:15:43;8.50;;;3.23;;
13959;SDS011;7052;51.050;3.716;2024-02-04T09:18:10;7.33;;;3.27;;
13959;SDS011;7052;51.050;3.716;2024-02-04T09:20:37;8.33;;;3.07;;
13959;SDS011;7052;51.050;3.716;2024-02-04T09:23:05;6.60;;;3.13;;
13959;SDS011;7052;51.050;3.716;2024-02-04T09:25:32;7.73;;;3.10;;
13959;SDS011;7052;51.050;3.716;2024-02-04T09:27:59;9.60;;;3.63;;
13959;SDS011;7052;51.050;3.716;2024-02-04T09:30:26;6.77;;;3.43;;
13959;SDS011;7052;51.050;3.716;2024-02-04T09:32:57;11.17;;;3.77;;
13959;SDS011;7052;51.050;3.716;2024-02-04T09:35:24;8.50;;;3.20;;
13959;SDS011;7052;51.050;3.716;2024-02-04T09:37:53;5.33;;;3.03;;
13959;SDS011;7052;51.050;3.716;2024-02-04T09:40:21;7.07;;;3.10;;
13959;SDS011;7052;51.050;3.716;2024-02-04T09:42:49;5.13;;;2.63;;
13959;SDS011;7052;51.050;3.716;2024-02-04T09:45:17;6.93;;;2.87;;
13959;SDS011;7052;51.050;3.716;2024-02-04T09:47:45;4.10;;;2.60;;
13959;SDS011;7052;51.050;3.716;2024-02-04T09:50:22;6.27;;;2.47;;
13959;SDS011;7052;51.050;3.716;2024-02-04T09:52:50;5.73;;;2.63;;
13959;SDS011;7052;51.050;3.716;2024-02-04T09:55:19;6.30;;;2.77;;
13959;SDS011;7052;51.050;3.716;2024-02-04T09:57:47;7.77;;;2.70;;
13959;SDS011;7052;51.050;3.716;2024-02-04T10:00:14;6.00;;;3.00;;
13959;SDS011;7052;51.050;3.716;2024-02-04T10:02:45;4.97;;;2.80;;
13959;SDS011;7052;51.050;3.716;2024-02-04T10:05:19;6.87;;;2.63;;
13959;SDS011;7052;51.050;3.716;2024-02-04T10:07:48;5.60;;;2.80;;
13959;SDS011;7052;51.050;3.716;2024-02-04T10:10:15;3.93;;;2.53;;
13959;SDS011;7052;51.050;3.716;2024-02-04T10:12:44;5.80;;;2.90;;
13959;SDS011;7052;51.050;3.716;2024-02-04T10:15:11;4.27;;;2.60;;
13959;SDS011;7052;51.050;3.716;2024-02-04T10:17:42;5.63;;;2.80;;
13959;SDS011;7052;51.050;3.716;2024-02-04T10:20:11;4.77;;;3.03;;
13959;SDS011;7052;51.050;3.716;2024-02-04T10:22:40;5.73;;;2.90;;
13959;SDS011;7052;51.050;3.716;2024-02-04T10:25:08;7.93;;;3.30;;
13959;SDS011;7052;51.050;3.716;2024-02-04T10:27:37;7.07;;;3.40;;
13959;SDS011;7052;51.050;3.716;2024-02-04T10:30:06;4.23;;;2.50;;
13959;SDS011;7052;51.050;3.716;2024-02-04T10:32:34;4.00;;;2.60;;
13959;SDS011;7052;51.050;3.716;2024-02-04T10:35:02;9.73;;;3.17;;
13959;SDS011;7052;51.050;3.716;2024-02-04T10:37:32;5.77;;;2.97;;
13959;SDS011;7052;51.050;3.716;2024-02-04T10:40:02;7.60;;;3.10;;
13959;SDS011;7052;51.050;3.716;2024-02-04T10:42:30;5.40;;;2.90;;
13959;SDS011;7052;51.050;3.716;2024-02-04T10:44:58;7.33;;;3.50;;
13959;SDS011;7052;51.050;3.716;2024-02-04T10:47:29;5.23;;;2.70;;
13959;SDS011;7052;51.050;3.716;2024-02-04T10:49:59;6.17;;;2.87;;
13959;SDS011;7052;51.050;3.716;2024-02-04T10:52:30;8.80;;;3.30;;
13959;SDS011;7052;51.050;3.716;2024-02-04T10:55:07;7.27;;;3.00;;
13959;SDS011;7052;51.050;3.716;2024-02-04T10:57:35;6.30;;;2.90;;
13959;SDS011;7052;51.050;3.716;2024-02-04T11:00:04;8.27;;;3.37;;
13959;SDS011;7052;51.050;3.716;2024-02-04T11:02:33;5.77;;;2.60;;
13959;SDS011;7052;51.050;3.716;2024-02-04T11:05:01;6.83;;;3.27;;
13959;SDS011;7052;51.050;3.716;2024-02-04T11:07:29;8.30;;;3.47;;
13959;SDS011;7052;51.050;3.716;2024-02-04T11:10:01;10.20;;;3.53;;
13959;SDS011;7052;51.050;3.716;2024-02-04T11:12:35;7.13;;;3.17;;
13959;SDS011;7052;51.050;3.716;2024-02-04T11:15:07;14.67;;;3.83;;
13959;SDS011;7052;51.050;3.716;2024-02-04T11:21:03;8.13;;;3.43;;
13959;SDS011;7052;51.050;3.716;2024-02-04T11:23:51;8.50;;;3.00;;
13959;SDS011;7052;51.050;3.716;2024-02-04T11:26:28;6.97;;;3.20;;
13959;SDS011;7052;51.050;3.716;2024-02-04T11:29:01;11.67;;;3.50;;
13959;SDS011;7052;51.050;3.716;2024-02-04T11:31:28;7.63;;;3.63;;
13959;SDS011;7052;51.050;3.716;2024-02-04T11:33:56;7.67;;;3.07;;
13959;SDS011;7052;51.050;3.716;2024-02-04T11:36:24;7.90;;;3.10;;
13959;SDS011;7052;51.050;3.716;2024-02-04T11:38:51;6.47;;;2.90;;
13959;SDS011;7052;51.050;3.716;2024-02-04T11:41:21;6.40;;;2.60;;
13959;SDS011;7052;51.050;3.716;2024-02-04T11:43:57;8.70;;;2.90;;
13959;SDS011;7052;51.050;3.716;2024-02-04T11:46:31;7.43;;;2.63;;
13959;SDS011;7052;51.050;3.716;2024-02-04T11:48:59;7.30;;;2.87;;
13959;SDS011;7052;51.050;3.716;2024-02-04T11:51:29;7.47;;;2.77;;
13959;SDS011;7052;51.050;3.716;2024-02-04T11:53:56;6.67;;;2.60;;
13959;SDS011;7052;51.050;3.716;2024-02-04T11:56:29;8.80;;;2.93;;
13959;SDS011;7052;51.050;3.716;2024-02-04T11:58:58;7.90;;;2.67;;
13959;SDS011;7052;51.050;3.716;2024-02-04T12:01:26;7.17;;;2.80;;
13959;SDS011;7052;51.050;3.716;2024-02-04T12:03:57;5.53;;;2.50;;
13959;SDS011;7052;51.050;3.716;2024-02-04T12:06:23;15.47;;;3.57;;
13959;SDS011;7052;51.050;3.716;2024-02-04T12:08:51;7.15;;;2.95;;
13959;SDS011;7052;51.050;3.716;2024-02-04T12:11:20;7.03;;;2.50;;
13959;SDS011;7052;51.050;3.716;2024-02-04T12:13:48;9.57;;;3.07;;
13959;SDS011;7052;51.050;3.716;2024-02-04T12:16:18;4.93;;;2.47;;
13959;SDS011;7052;51.050;3.716;2024-02-04T12:18:49;5.67;;;2.40;;
13959;SDS011;7052;51.050;3.716;2024-02-04T12:21:18;5.47;;;2.13;;
13959;SDS011;7052;51.050;3.716;2024-02-04T12:23:45;7.10;;;2.63;;
13959;SDS011;7052;51.050;3.716;2024-02-04T12:26:14;4.23;;;2.17;;
13959;SDS011;7052;51.050;3.716;2024-02-04T12:28:41;5.23;;;2.53;;
13959;SDS011;7052;51.050;3.716;2024-02-04T12:31:17;5.07;;;2.13;;
13959;SDS011;7052;51.050;3.716;2024-02-04T12:33:52;4.50;;;2.40;;
13959;SDS011;7052;51.050;3.716;2024-02-04T12:36:24;6.93;;;2.80;;
13959;SDS011;7052;51.050;3.716;2024-02-04T12:38:52;5.80;;;2.20;;
13959;SDS011;7052;51.050;3.716;2024-02-04T12:41:21;7.13;;;3.60;;
13959;SDS011;7052;51.050;3.716;2024-02-04T12:43:50;5.17;;;2.23;;
13959;SDS011;7052;51.050;3.716;2024-02-04T12:46:19;5.40;;;2.33;;
13959;SDS011;7052;51.050;3.716;2024-02-04T12:48:56;8.73;;;2.60;;
13959;SDS011;7052;51.050;3.716;2024-02-04T12:51:26;5.20;;;2.50;;
13959;SDS011;7052;51.050;3.716;2024-02-04T12:54:04;6.03;;;2.40;;
13959;SDS011;7052;51.050;3.716;2024-02-04T12:56:43;7.07;;;2.63;;
13959;SDS011;7052;51.050;3.716;2024-02-04T12:59:12;8.20;;;2.60;;
13959;SDS011;7052;51.050;3.716;2024-02-04T13:01:57;7.83;;;3.20;;
13959;SDS011;7052;51.050;3.716;2024-02-04T13:04:25;5.97;;;2.63;;
13959;SDS011;7052;51.050;3.716;2024-02-04T13:07:08;6.17;;;2.80;;
13959;SDS011;7052;51.050;3.716;2024-02-04T13:09:39;5.80;;;3.00;;
13959;SDS011;7052;51.050;3.716;2024-02-04T13:12:07;6.50;;;2.83;;
13959;SDS011;7052;51.050;3.716;2024-02-04T13:14:38;7.30;;;3.10;;
13959;SDS011;7052;51.050;3.716;2024-02-04T13:17:11;7.80;;;2.80;;
13959;SDS011;7052;51.050;3.716;2024-02-04T13:19:38;6.30;;;2.80;;
13959;SDS011;7052;51.050;3.716;2024-02-04T13:22:07;7.07;;;3.43;;
13959;SDS011;7052;51.050;3.716;2024-02-04T13:24:35;9.67;;;3.37;;
13959;SDS011;7052;51.050;3.716;2024-02-04T13:27:04;5.77;;;2.80;;
13959;SDS011;7052;51.050;3.716;2024-02-04T13:29:32;11.43;;;3.63;;
13959;SDS011;7052;51.050;3.716;2024-02-04T13:32:04;10.30;;;3.40;;
13959;SDS011;7052;51.050;3.716;2024-02-04T13:34:31;12.03;;;3.60;;
13959;SDS011;7052;51.050;3.716;2024-02-04T13:36:59;8.50;;;3.13;;
13959;SDS011;7052;51.050;3.716;2024-02-04T13:39:28;7.77;;;2.90;;
13959;SDS011;7052;51.050;3.716;2024-02-04T13:41:54;9.87;;;3.53;;
13959;SDS011;7052;51.050;3.716;2024-02-04T13:44:24;10.23;;;3.57;;
13959;SDS011;7052;51.050;3.716;2024-02-04T13:46:51;13.83;;;5.30;;
13959;SDS011;7052;51.050;3.716;2024-02-04T13:49:20;10.57;;;3.53;;
13959;SDS011;7052;51.050;3.716;2024-02-04T13:51:47;8.37;;;3.40;;
13959;SDS011;7052;51.050;3.716;2024-02-04T13:54:14;10.40;;;3.43;;
13959;SDS011;7052;51.050;3.716;2024-02-04T13:56:43;8.57;;;3.67;;
13959;SDS011;7052;51.050;3.716;2024-02-04T13:59:12;12.43;;;5.13;;
13959;SDS011;7052;51.050;3.716;2024-02-04T14:01:39;10.97;;;3.80;;
13959;SDS011;7052;51.050;3.716;2024-02-04T14:04:07;10.70;;;3.70;;
13959;SDS011;7052;51.050;3.716;2024-02-04T14:06:35;8.57;;;3.20;;
13959;SDS011;7052;51.050;3.716;2024-02-04T14:09:05;16.30;;;3.83;;
13959;SDS011;7052;51.050;3.716;2024-02-04T14:11:31;6.40;;;2.90;;
13959;SDS011;7052;51.050;3.716;2024-02-04T14:14:01;6.47;;;2.50;;
13959;SDS011;7052;51.050;3.716;2024-02-04T14:16:28;11.87;;;4.33;;
13959;SDS011;7052;51.050;3.716;2024-02-04T14:18:57;9.70;;;3.00;;
13959;SDS011;7052;51.050;3.716;2024-02-04T14:21:24;8.00;;;3.33;;
13959;SDS011;7052;51.050;3.716;2024-02-04T14:23:52;11.57;;;3.40;;
13959;SDS011;7052;51.050;3.716;2024-02-04T14:26:19;9.93;;;3.40;;
13959;SDS011;7052;51.050;3.716;2024-02-04T14:28:49;10.23;;;3.70;;
13959;SDS011;7052;51.050;3.716;2024-02-04T14:31:21;18.17;;;4.67;;
13959;SDS011;7052;51.050;3.716;2024-02-04T14:33:48;9.83;;;3.30;;
13959;SDS011;7052;51.050;3.716;2024-02-04T14:36:15;15.40;;;4.37;;
13959;SDS011;7052;51.050;3.716;2024-02-04T14:38:42;13.13;;;3.55;;
13959;SDS011;7052;51.050;3.716;2024-02-04T14:41:09;10.73;;;3.55;;
13959;SDS011;7052;51.050;3.716;2024-02-04T14:43:37;10.73;;;3.73;;
13959;SDS011;7052;51.050;3.716;2024-02-04T14:46:04;11.27;;;3.33;;
13959;SDS011;7052;51.050;3.716;2024-02-04T14:48:40;8.30;;;3.40;;
13959;SDS011;7052;51.050;3.716;2024-02-04T14:51:08;11.40;;;4.07;;
13959;SDS011;7052;51.050;3.716;2024-02-04T14:53:36;10.03;;;3.17;;
13959;SDS011;7052;51.050;3.716;2024-02-04T14:56:04;15.20;;;4.13;;
13959;SDS011;7052;51.050;3.716;2024-02-04T14:58:31;12.87;;;3.83;;
13959;SDS011;7052;51.050;3.716;2024-02-04T15:01:00;12.67;;;3.87;;
13959;SDS011;7052;51.050;3.716;2024-02-04T15:03:27;15.83;;;3.90;;
13959;SDS011;7052;51.050;3.716;2024-02-04T15:05:55;10.70;;;3.63;;